createdAt,value
2017-08-02T00:09:08.253Z,16.26
2017-08-02T00:19:08.203Z,16.16
2017-08-02T00:29:08.258Z,16.25
2017-08-02T00:39:08.203Z,16.07
2017-08-02T00:49:08.220Z,16.09
2017-08-02T00:59:08.261Z,16.06
2017-08-02T01:09:08.231Z,15.97
2017-08-02T01:19:08.253Z,15.84
2017-08-02T01:29:08.221Z,15.82
2017-08-02T01:39:08.193Z,15.81
2017-08-02T01:49:08.275Z,15.66
2017-08-02T01:59:08.246Z,15.61
2017-08-02T02:09:08.292Z,15.45
2017-08-02T02:19:08.256Z,15.52
2017-08-02T02:29:08.227Z,15.54
2017-08-02T02:39:08.281Z,15.67
2017-08-02T02:49:08.222Z,15.64
2017-08-02T02:59:08.295Z,15.43
2017-08-02T03:09:08.263Z,15.45
2017-08-02T03:19:08.200Z,15.6
2017-08-02T03:29:08.297Z,15.72
2017-08-02T03:39:08.261Z,15.75
2017-08-02T03:49:08.207Z,15.72
2017-08-02T03:59:08.254Z,15.7
2017-08-02T04:09:08.230Z,15.7
2017-08-02T04:19:08.296Z,15.74
2017-08-02T04:29:08.241Z,15.88
2017-08-02T04:39:08.168Z,16.16
2017-08-02T04:49:08.281Z,16.44
2017-08-02T04:59:08.249Z,16.71
2017-08-02T05:09:08.227Z,16.78
2017-08-02T05:19:08.238Z,17.3
2017-08-02T05:29:08.259Z,17.55
2017-08-02T05:39:08.302Z,17.99
2017-08-02T05:49:08.442Z,18.46
2017-08-02T05:59:08.206Z,18.58
2017-08-02T06:09:08.283Z,19.06
2017-08-02T06:19:08.243Z,19.1
2017-08-02T06:29:08.214Z,19.4
2017-08-02T06:39:08.193Z,19.7
2017-08-02T06:49:08.173Z,20.25
2017-08-02T06:59:08.186Z,20.62
2017-08-02T07:09:08.375Z,21.09
2017-08-02T07:19:08.227Z,21.35
2017-08-02T07:29:08.212Z,22.14
2017-08-02T07:39:08.201Z,24.87
2017-08-02T07:49:08.196Z,24.57
2017-08-02T07:59:08.200Z,26.37
2017-08-02T08:09:08.208Z,25.74
2017-08-02T08:19:08.251Z,25.13
2017-08-02T08:29:08.184Z,25.2
2017-08-02T08:39:08.211Z,27.39
2017-08-02T08:49:08.202Z,26.2
2017-08-02T08:59:08.216Z,24.91
2017-08-02T09:09:08.221Z,24.85
2017-08-02T09:19:08.246Z,25.28
2017-08-02T09:29:08.235Z,26.01
2017-08-02T09:39:08.220Z,25.82
2017-08-02T09:49:08.288Z,25.2
2017-08-02T09:59:08.241Z,25.42
2017-08-02T10:09:08.281Z,25.32
2017-08-02T10:19:08.242Z,25.09
2017-08-02T10:29:08.273Z,25.62
2017-08-02T10:39:08.254Z,25.06
2017-08-02T10:49:08.233Z,25.13
2017-08-02T10:59:08.280Z,25.05
2017-08-02T11:09:08.249Z,25.25
2017-08-02T11:19:08.234Z,25.19
2017-08-02T11:29:08.270Z,25.57
2017-08-02T11:39:08.318Z,25.37
2017-08-02T11:49:08.274Z,25.16
2017-08-02T11:59:08.279Z,25.34
2017-08-02T12:09:08.299Z,25.97
2017-08-02T12:19:08.384Z,26.06
2017-08-02T12:29:08.310Z,26.84
2017-08-02T12:39:08.273Z,26.43
2017-08-02T12:49:08.368Z,26.44
2017-08-02T12:59:08.371Z,26.06
2017-08-02T13:09:08.377Z,26.5
2017-08-02T13:19:08.332Z,26.08
2017-08-02T13:29:08.302Z,25.94
2017-08-02T13:39:08.348Z,26.52
2017-08-02T13:49:08.306Z,26.86
2017-08-02T13:59:08.364Z,27.1
2017-08-02T14:09:08.348Z,27.38
2017-08-02T14:19:08.404Z,26.74
2017-08-02T14:29:08.451Z,26.55
2017-08-02T14:39:08.342Z,27.02
2017-08-02T14:49:08.372Z,27.19
2017-08-02T14:59:08.361Z,26.96
2017-08-02T15:09:08.404Z,26.62
2017-08-02T15:19:08.399Z,26.77
2017-08-02T15:29:08.318Z,26.47
2017-08-02T15:39:09.419Z,25.97
2017-08-02T15:49:08.358Z,25.62
2017-08-02T15:59:08.438Z,25.43
2017-08-02T16:09:08.375Z,25.15
2017-08-02T16:19:08.356Z,25.02
2017-08-02T16:29:08.454Z,24.63
2017-08-02T16:39:08.365Z,24.01
2017-08-02T16:49:08.432Z,23.6
2017-08-02T16:59:08.331Z,23.23
2017-08-02T17:09:08.334Z,22.86
2017-08-02T17:19:08.328Z,22.57
2017-08-02T17:29:08.362Z,22.27
2017-08-02T17:39:08.279Z,21.97
2017-08-02T17:49:08.315Z,21.83
2017-08-02T17:59:08.340Z,21.57
2017-08-02T18:09:08.374Z,21.35
2017-08-02T18:19:08.380Z,21.26
2017-08-02T18:29:12.623Z,21.2
2017-08-02T18:39:08.842Z,21.02
2017-08-02T18:49:08.480Z,20.95
2017-08-02T18:59:08.485Z,20.77
2017-08-02T19:09:08.734Z,20.64
2017-08-02T19:19:08.352Z,20.3
2017-08-02T19:29:08.401Z,20.16
2017-08-02T19:39:08.440Z,20.09
2017-08-02T19:49:08.546Z,19.93
2017-08-02T19:59:08.460Z,19.95
2017-08-02T20:09:08.419Z,19.76
2017-08-02T20:19:08.495Z,19.66
2017-08-02T20:29:08.399Z,19.69
2017-08-02T20:39:08.496Z,19.63
2017-08-02T20:49:08.485Z,19.65
2017-08-02T20:59:08.405Z,19.61
2017-08-02T21:09:08.453Z,19.54
2017-08-02T21:19:08.461Z,19.5
2017-08-02T21:29:08.511Z,19.42
2017-08-02T21:39:08.422Z,19.35
2017-08-02T21:49:08.397Z,19.24
2017-08-02T21:59:08.434Z,19.31
2017-08-02T22:09:08.412Z,19.17
2017-08-02T22:19:08.497Z,19.14
2017-08-02T22:29:08.534Z,19.05
2017-08-02T22:39:14.250Z,18.98
2017-08-02T22:49:08.648Z,18.86
2017-08-02T22:59:08.492Z,18.86
2017-08-02T23:09:08.438Z,18.9
2017-08-02T23:19:08.428Z,18.91
2017-08-02T23:29:08.403Z,18.92
2017-08-02T23:39:08.463Z,18.91
2017-08-02T23:49:08.386Z,18.87
2017-08-02T23:59:08.549Z,18.79
